Time;durP1;ratioP1;P1;durP2;ratioP2;P2;SDS_P1;SDS_P2;PMS_P1;PMS_P2;Temp;Humidity;BMP_temperature;BMP_pressure;BME280_temperature;BME280_humidity;BME280_pressure;Samples;Min_cycle;Max_cycle;Signal;HPM_P1;HPM_P2
2023/12/02 00:00:20;;;;;;;2.20;2.00;;;;;;;19.41;36.14;101111.38;5085572;28;20047;-71
2023/12/02 00:02:45;;;;;;;2.08;1.88;;;;;;;19.39;36.29;101114.19;5074187;28;20158;-71
2023/12/02 00:05:11;;;;;;;1.70;1.60;;;;;;;19.38;36.16;101112.50;5085075;28;20060;-71
2023/12/02 00:07:37;;;;;;;1.80;1.70;;;;;;;19.37;36.03;101113.50;5083450;28;20036;-71
2023/12/02 00:10:03;;;;;;;1.77;1.67;;;;;;;19.36;36.07;101111.84;5080826;28;20040;-72
2023/12/02 00:12:28;;;;;;;1.83;1.73;;;;;;;19.35;36.17;101110.22;5083086;28;20105;-71
2023/12/02 00:14:54;;;;;;;1.95;1.80;;;;;;;19.26;36.21;101095.41;5080699;28;20040;-71
2023/12/02 00:17:20;;;;;;;2.03;1.92;;;;;;;19.35;36.17;101101.47;5066853;28;20093;-71
2023/12/02 00:19:45;;;;;;;1.98;1.77;;;;;;;19.33;36.14;101107.75;5078828;28;20071;-71
2023/12/02 00:22:11;;;;;;;2.20;1.80;;;;;;;19.24;36.04;101081.56;5083078;28;20104;-71
2023/12/02 00:24:36;;;;;;;1.92;1.80;;;;;;;19.28;36.39;101085.50;5078492;28;20580;-71
2023/12/02 00:27:03;;;;;;;1.75;1.65;;;;;;;19.29;36.23;101089.78;5083711;28;20094;-71
2023/12/02 00:29:29;;;;;;;2.15;2.05;;;;;;;19.26;36.24;101083.03;5080745;28;20097;-71
2023/12/02 00:31:54;;;;;;;1.77;1.67;;;;;;;19.32;36.15;101100.00;5082005;28;20035;-71
2023/12/02 00:34:20;;;;;;;1.90;1.80;;;;;;;19.31;36.20;101093.06;5084964;28;20032;-71
2023/12/02 00:36:46;;;;;;;2.22;2.00;;;;;;;19.29;36.19;101087.13;5081006;28;20046;-71
2023/12/02 00:39:12;;;;;;;1.88;1.70;;;;;;;19.31;36.27;101093.88;5073737;28;20091;-71
2023/12/02 00:41:38;;;;;;;1.70;1.60;;;;;;;19.32;36.22;101098.19;5080352;28;20165;-71
2023/12/02 00:44:04;;;;;;;1.70;1.60;;;;;;;19.30;36.23;101096.69;5083687;28;20051;-71
2023/12/02 00:46:29;;;;;;;1.60;1.50;;;;;;;19.31;36.25;101098.34;5082430;28;20040;-70
2023/12/02 00:48:55;;;;;;;2.08;1.90;;;;;;;19.28;36.25;101096.88;5079926;28;20364;-71
2023/12/02 00:51:20;;;;;;;1.83;1.73;;;;;;;19.26;36.21;101087.47;5084184;28;20043;-71
2023/12/02 00:53:46;;;;;;;1.73;1.63;;;;;;;19.24;36.31;101087.66;5085056;28;20112;-71
2023/12/02 00:56:11;;;;;;;1.77;1.67;;;;;;;19.27;36.29;101092.59;5078666;28;20036;-71
2023/12/02 00:58:37;;;;;;;1.92;1.77;;;;;;;19.27;36.24;101097.88;5087173;28;20044;-71
2023/12/02 01:01:03;;;;;;;2.03;1.85;;;;;;;19.26;36.21;101098.03;5082031;28;20044;-71
2023/12/02 01:03:28;;;;;;;1.58;1.48;;;;;;;19.25;36.25;101094.56;5084648;28;20043;-71
2023/12/02 01:05:54;;;;;;;1.80;1.70;;;;;;;19.20;36.25;101075.75;5083316;28;20052;-71
2023/12/02 01:08:19;;;;;;;1.70;1.60;;;;;;;19.24;36.40;101079.72;5064768;28;20070;-71
2023/12/02 01:10:45;;;;;;;1.90;1.80;;;;;;;19.22;36.30;101084.38;5078836;28;20784;-71
2023/12/02 01:13:10;;;;;;;1.70;1.60;;;;;;;19.22;36.32;101087.00;5063175;28;20046;-71
2023/12/02 01:15:36;;;;;;;1.90;1.80;;;;;;;19.20;36.14;101083.69;5075849;28;20031;-69
2023/12/02 01:18:01;;;;;;;2.10;2.00;;;;;;;19.21;36.20;101085.34;5056495;28;20043;-71
2023/12/02 01:20:27;;;;;;;2.00;1.80;;;;;;;19.20;36.28;101080.22;5092004;28;20052;-71
2023/12/02 01:22:52;;;;;;;1.85;1.75;;;;;;;19.21;36.26;101089.78;5080537;28;20047;-71
2023/12/02 01:25:18;;;;;;;1.95;1.80;;;;;;;19.29;36.08;101095.88;5062240;28;20467;-71
2023/12/02 01:27:43;;;;;;;2.10;1.90;;;;;;;19.50;35.84;101092.66;5087407;28;20046;-71
2023/12/02 01:30:09;;;;;;;1.65;1.55;;;;;;;19.58;35.70;101095.31;5076523;28;20097;-71
2023/12/02 01:32:36;;;;;;;1.92;1.80;;;;;;;19.57;35.82;101095.50;5080355;28;20777;-71
2023/12/02 01:35:01;;;;;;;1.75;1.65;;;;;;;19.49;35.81;101077.81;5077833;28;20040;-71
2023/12/02 01:37:27;;;;;;;1.80;1.70;;;;;;;19.45;35.71;101080.97;5072463;28;20058;-71
2023/12/02 01:39:53;;;;;;;1.80;1.70;;;;;;;19.48;35.83;101085.91;5063378;28;20031;-71
2023/12/02 01:42:19;;;;;;;1.70;1.60;;;;;;;19.50;35.92;101097.13;5081843;28;20783;-71
2023/12/02 01:44:44;;;;;;;1.50;1.40;;;;;;;19.47;36.14;101105.41;5079850;28;20130;-71
2023/12/02 01:47:10;;;;;;;2.05;1.95;;;;;;;19.40;36.07;101097.34;5062669;28;20039;-71
2023/12/02 01:49:37;;;;;;;1.83;1.73;;;;;;;19.41;36.06;101100.81;5077910;28;20043;-71
2023/12/02 01:52:03;;;;;;;2.00;1.83;;;;;;;19.37;36.09;101096.84;5076338;28;20943;-71
2023/12/02 01:54:29;;;;;;;2.05;1.85;;;;;;;19.39;36.15;101102.78;5081297;28;21048;-71
2023/12/02 01:56:55;;;;;;;1.60;1.50;;;;;;;19.36;36.13;101097.84;5061746;28;20372;-70
2023/12/02 01:59:30;;;;;;;1.80;1.70;;;;;;;19.33;36.26;101096.34;5079961;28;20537;-70
2023/12/02 02:02:00;;;;;;;2.00;1.90;;;;;;;19.25;36.23;101080.56;5079542;28;20504;-71
2023/12/02 02:04:25;;;;;;;1.90;1.80;;;;;;;19.34;36.35;101098.00;5080414;28;20059;-71
2023/12/02 02:06:51;;;;;;;1.75;1.65;;;;;;;19.34;36.21;101098.00;5077788;28;20035;-71
2023/12/02 02:09:16;;;;;;;1.85;1.75;;;;;;;19.30;36.26;101092.25;5078785;28;20081;-71
2023/12/02 02:11:42;;;;;;;1.83;1.73;;;;;;;19.31;36.17;101095.72;5076925;28;20047;-71
2023/12/02 02:14:07;;;;;;;1.80;1.70;;;;;;;19.31;36.34;101091.25;5079954;28;20048;-71
2023/12/02 02:16:33;;;;;;;2.03;1.83;;;;;;;19.20;35.93;101083.69;5071101;28;20036;-71
2023/12/02 02:18:58;;;;;;;1.73;1.63;;;;;;;19.21;36.32;101084.50;5062935;28;20421;-71
2023/12/02 02:21:24;;;;;;;1.70;1.60;;;;;;;19.21;36.28;101085.34;5084401;28;20047;-71
2023/12/02 02:23:49;;;;;;;1.90;1.80;;;;;;;19.27;36.43;101086.47;5078159;28;20028;-71
2023/12/02 02:26:15;;;;;;;1.80;1.70;;;;;;;19.23;36.32;101086.00;5080569;28;20060;-71
2023/12/02 02:28:40;;;;;;;1.77;1.67;;;;;;;19.08;36.24;101061.28;5089957;28;20051;-71
2023/12/02 02:31:06;;;;;;;1.80;1.70;;;;;;;19.24;36.35;101090.28;5084350;28;20038;-70
2023/12/02 02:33:32;;;;;;;1.70;1.60;;;;;;;19.11;36.27;101065.41;5086225;28;20040;-70
2023/12/02 02:35:58;;;;;;;1.77;1.67;;;;;;;19.19;36.11;101082.03;5082772;28;20036;-71
2023/12/02 02:38:24;;;;;;;1.98;1.80;;;;;;;19.23;36.32;101090.47;5070196;28;20050;-71
2023/12/02 02:40:49;;;;;;;2.00;1.80;;;;;;;19.21;36.18;101088.00;5086256;28;20043;-71
2023/12/02 02:43:15;;;;;;;1.67;1.58;;;;;;;19.20;36.38;101088.97;5087164;28;20136;-71
2023/12/02 02:45:40;;;;;;;1.90;1.80;;;;;;;19.17;36.22;101085.84;5091636;28;20055;-71
2023/12/02 02:48:08;;;;;;;1.52;1.42;;;;;;;19.11;36.17;101065.41;5084349;28;20040;-71
2023/12/02 02:50:33;;;;;;;1.70;1.60;;;;;;;19.16;36.44;101077.09;5076450;28;20090;-71
2023/12/02 02:52:58;;;;;;;1.70;1.60;;;;;;;19.21;36.19;101072.16;5080985;28;20039;-71
2023/12/02 02:55:24;;;;;;;1.92;1.83;;;;;;;19.20;36.44;101073.13;5067954;28;20051;-71
2023/12/02 02:57:49;;;;;;;1.80;1.70;;;;;;;19.13;36.16;101064.25;5080955;28;20373;-71
2023/12/02 03:00:15;;;;;;;1.55;1.45;;;;;;;19.23;36.23;101082.53;5069105;28;20040;-71
2023/12/02 03:02:41;;;;;;;1.75;1.65;;;;;;;19.22;36.21;101083.53;5085828;28;20430;-68
2023/12/02 03:05:07;;;;;;;1.80;1.70;;;;;;;19.20;36.29;101081.03;5090049;28;20063;-69
2023/12/02 03:07:33;;;;;;;1.75;1.65;;;;;;;19.13;36.23;101066.06;5082825;28;20040;-69
2023/12/02 03:09:59;;;;;;;1.90;1.80;;;;;;;19.20;36.32;101077.56;5078570;28;20035;-69
2023/12/02 03:12:25;;;;;;;1.80;1.70;;;;;;;19.20;36.39;101077.56;5085070;28;20433;-69
2023/12/02 03:14:52;;;;;;;1.80;1.70;;;;;;;19.16;36.33;101079.75;5089206;28;20028;-69
2023/12/02 03:17:18;;;;;;;1.90;1.80;;;;;;;19.17;36.26;101073.47;5086526;28;20112;-69
2023/12/02 03:19:44;;;;;;;1.80;1.70;;;;;;;19.17;36.42;101075.28;5091529;28;20513;-69
2023/12/02 03:22:09;;;;;;;1.70;1.60;;;;;;;19.17;36.22;101075.28;5084010;28;20024;-69
2023/12/02 03:24:35;;;;;;;1.70;1.60;;;;;;;19.18;36.41;101079.56;5083584;28;20101;-69
2023/12/02 03:27:02;;;;;;;1.70;1.60;;;;;;;19.14;36.39;101072.97;5071347;28;20118;-69
2023/12/02 03:29:28;;;;;;;1.95;1.85;;;;;;;19.15;36.40;101083.38;5083608;28;20059;-69
2023/12/02 03:31:53;;;;;;;1.70;1.60;;;;;;;19.14;36.37;101080.91;5090492;28;20035;-69
2023/12/02 03:34:19;;;;;;;1.70;1.60;;;;;;;19.07;36.48;101067.56;5074100;28;20031;-69
2023/12/02 03:36:44;;;;;;;1.65;1.55;;;;;;;19.13;36.48;101074.81;5055053;28;20040;-69
2023/12/02 03:39:12;;;;;;;1.50;1.40;;;;;;;19.13;36.38;101071.34;5087422;28;20041;-69
2023/12/02 03:41:41;;;;;;;1.77;1.67;;;;;;;19.11;36.53;101068.88;5088104;28;21085;-69
2023/12/02 03:44:07;;;;;;;1.52;1.42;;;;;;;19.11;36.36;101065.41;5084818;28;20097;-69
2023/12/02 03:46:35;;;;;;;1.80;1.45;;;;;;;19.11;36.31;101068.88;5049477;28;20036;-69
2023/12/02 03:49:00;;;;;;;1.85;1.70;;;;;;;19.07;36.40;101062.28;5079208;28;20131;-69
2023/12/02 03:51:26;;;;;;;1.73;1.63;;;;;;;19.07;36.41;101067.56;5080595;28;20120;-69
2023/12/02 03:53:52;;;;;;;1.60;1.50;;;;;;;19.11;36.44;101073.31;5084909;28;20027;-69
2023/12/02 03:56:17;;;;;;;1.80;1.70;;;;;;;19.09;36.40;101065.56;5088413;28;20447;-69
2023/12/02 03:58:43;;;;;;;1.90;1.80;;;;;;;19.10;36.48;101069.03;5083582;28;20036;-69
2023/12/02 04:01:08;;;;;;;1.60;1.50;;;;;;;19.00;36.61;101053.38;5067245;28;20104;-69
2023/12/02 04:03:34;;;;;;;1.60;1.50;;;;;;;19.11;36.38;101071.50;5085881;28;20036;-69
2023/12/02 04:05:59;;;;;;;1.63;1.52;;;;;;;19.09;36.45;101080.59;5077468;28;20027;-69
2023/12/02 04:08:24;;;;;;;1.90;1.80;;;;;;;19.09;36.46;101075.31;5076847;28;20051;-69
2023/12/02 04:10:50;;;;;;;1.90;1.80;;;;;;;19.09;36.34;101075.31;5085222;28;20035;-71
2023/12/02 04:13:16;;;;;;;1.60;1.50;;;;;;;19.09;36.56;101077.97;5080422;28;20040;-71
2023/12/02 04:15:41;;;;;;;1.75;1.65;;;;;;;19.07;36.41;101082.59;5082302;28;20035;-71
2023/12/02 04:18:07;;;;;;;1.70;1.60;;;;;;;19.07;36.44;101078.13;5077771;28;20055;-71
2023/12/02 04:20:32;;;;;;;1.90;1.80;;;;;;;18.91;36.22;101052.59;5079534;28;20047;-71
2023/12/02 04:22:58;;;;;;;1.70;1.60;;;;;;;19.07;36.35;101083.41;5082142;28;20040;-71
2023/12/02 04:25:23;;;;;;;1.70;1.60;;;;;;;19.05;36.55;101085.41;5084492;28;20074;-70
2023/12/02 04:27:49;;;;;;;2.08;1.90;;;;;;;19.02;36.51;101086.53;5081246;28;20055;-70
2023/12/02 04:30:14;;;;;;;1.80;1.70;;;;;;;19.12;36.41;101085.53;5083719;28;20130;-70
2023/12/02 04:32:40;;;;;;;1.55;1.45;;;;;;;19.15;36.38;101080.72;5075762;28;20069;-70
2023/12/02 04:35:06;;;;;;;1.65;1.55;;;;;;;19.19;36.35;101089.94;5076686;28;20477;-70
2023/12/02 04:37:32;;;;;;;1.80;1.70;;;;;;;19.22;36.21;101099.38;5085034;28;20093;-70
2023/12/02 04:39:58;;;;;;;1.83;1.73;;;;;;;19.25;36.31;101101.69;5074439;28;20036;-70
2023/12/02 04:42:23;;;;;;;1.65;1.55;;;;;;;19.18;36.27;101098.03;5084179;28;20102;-70
2023/12/02 04:44:49;;;;;;;1.70;1.60;;;;;;;19.22;36.33;101116.03;5082105;28;20055;-70
2023/12/02 04:47:15;;;;;;;1.77;1.60;;;;;;;19.16;36.37;101105.31;5084190;28;20039;-70
2023/12/02 04:49:41;;;;;;;1.80;1.70;;;;;;;19.20;36.44;101109.25;5085160;28;20474;-70
2023/12/02 04:52:06;;;;;;;1.75;1.65;;;;;;;19.12;36.37;101104.84;5078525;28;20045;-70
2023/12/02 04:54:33;;;;;;;1.80;1.70;;;;;;;19.15;36.37;101111.59;5078100;28;20024;-70
2023/12/02 04:57:00;;;;;;;1.73;1.63;;;;;;;19.11;36.54;101105.81;5073607;28;20039;-70
2023/12/02 04:59:25;;;;;;;1.80;1.67;;;;;;;19.13;36.58;101111.75;5082579;28;20052;-70
2023/12/02 05:01:51;;;;;;;1.90;1.80;;;;;;;19.11;36.38;101116.38;5076431;28;20051;-70
2023/12/02 05:04:16;;;;;;;1.75;1.65;;;;;;;19.09;36.38;101107.81;5063052;28;20052;-70
2023/12/02 05:06:42;;;;;;;1.77;1.67;;;;;;;19.12;36.51;101110.09;5079986;28;20056;-70
2023/12/02 05:09:08;;;;;;;1.50;1.40;;;;;;;19.12;36.45;101104.00;5085673;28;20066;-70
2023/12/02 05:11:34;;;;;;;1.80;1.70;;;;;;;19.10;36.44;101090.97;5065016;28;20106;-70
2023/12/02 05:13:59;;;;;;;1.20;1.20;;;;;;;19.20;36.35;101107.44;5079406;28;20131;-70
2023/12/02 05:16:25;;;;;;;1.50;1.40;;;;;;;19.18;36.33;101117.34;5077727;28;20043;-70
2023/12/02 05:18:50;;;;;;;1.55;1.45;;;;;;;19.17;36.35;101117.53;5061109;28;20034;-70
2023/12/02 05:21:18;;;;;;;1.42;1.40;;;;;;;19.17;36.22;101112.25;5076836;28;20608;-70
2023/12/02 05:23:43;;;;;;;1.60;1.50;;;;;;;19.16;36.42;101118.50;5077086;28;20040;-70
2023/12/02 05:26:09;;;;;;;1.73;1.63;;;;;;;18.98;36.38;101102.88;5076532;28;20043;-69
2023/12/02 05:28:35;;;;;;;1.50;1.40;;;;;;;19.12;36.41;101115.38;5083086;28;20127;-70
2023/12/02 05:31:01;;;;;;;1.73;1.63;;;;;;;19.09;36.47;101125.47;5075667;28;20039;-70
2023/12/02 05:33:27;;;;;;;1.50;1.40;;;;;;;19.10;36.41;101119.19;5087451;28;20046;-70
2023/12/02 05:35:53;;;;;;;1.67;1.58;;;;;;;19.06;36.25;101107.31;5055988;28;20097;-70
2023/12/02 05:38:18;;;;;;;1.50;1.40;;;;;;;19.30;36.22;101131.03;5079446;28;20473;-70
2023/12/02 05:40:44;;;;;;;1.80;1.70;;;;;;;19.48;35.87;101125.53;5074021;28;20055;-70
2023/12/02 05:43:09;;;;;;;1.45;1.35;;;;;;;19.79;35.42;101141.47;5071314;28;20039;-70
2023/12/02 05:45:35;;;;;;;1.42;1.33;;;;;;;19.81;35.32;101137.66;5077281;28;20044;-70
2023/12/02 05:48:00;;;;;;;1.60;1.50;;;;;;;19.78;35.47;101135.38;5075797;28;20039;-69
2023/12/02 05:50:26;;;;;;;1.60;1.50;;;;;;;19.76;35.56;101137.38;5083833;28;20082;-70
2023/12/02 05:52:52;;;;;;;1.50;1.40;;;;;;;19.73;35.53;101135.03;5085434;28;20050;-70
2023/12/02 05:55:17;;;;;;;1.27;1.20;;;;;;;19.65;35.67;101135.09;5075382;28;20041;-70
2023/12/02 05:57:46;;;;;;;1.20;1.20;;;;;;;19.60;35.79;101142.72;5078448;28;20040;-70
2023/12/02 06:00:13;;;;;;;1.38;1.27;;;;;;;19.58;35.78;101144.69;5079044;28;20036;-70
2023/12/02 06:02:39;;;;;;;1.60;1.50;;;;;;;19.53;35.96;101136.41;5074775;28;20040;-70
2023/12/02 06:05:06;;;;;;;1.17;1.17;;;;;;;19.48;35.99;101136.09;5078979;28;20051;-70
2023/12/02 06:07:32;;;;;;;1.60;1.50;;;;;;;19.48;36.05;101134.28;5076292;28;20333;-70
2023/12/02 06:09:58;;;;;;;1.35;1.25;;;;;;;19.43;36.29;101133.97;5082499;28;20066;-70
2023/12/02 06:12:23;;;;;;;1.40;1.30;;;;;;;19.43;36.07;101136.63;5080625;28;20065;-70
2023/12/02 06:14:49;;;;;;;1.60;1.50;;;;;;;19.40;36.20;101134.31;5064197;28;20126;-70
2023/12/02 06:17:15;;;;;;;1.60;1.50;;;;;;;19.37;36.23;101139.91;5079975;28;20036;-70
2023/12/02 06:19:40;;;;;;;1.20;1.10;;;;;;;19.34;36.48;101132.34;5082984;28;20063;-70
2023/12/02 06:22:06;;;;;;;1.50;1.40;;;;;;;19.33;36.31;101136.78;5071979;28;20036;-70
2023/12/02 06:24:31;;;;;;;1.40;1.30;;;;;;;19.32;36.34;101140.44;5082842;28;20499;-70
2023/12/02 06:26:57;;;;;;;1.30;1.30;;;;;;;19.29;36.24;101147.88;5075667;28;20028;-69
2023/12/02 06:29:22;;;;;;;1.40;1.30;;;;;;;19.27;36.38;101148.03;5081048;28;20036;-70
2023/12/02 06:31:49;;;;;;;1.55;1.45;;;;;;;19.25;36.29;101144.75;5083884;28;20580;-70
2023/12/02 06:34:15;;;;;;;1.50;1.40;;;;;;;19.14;36.36;101131.06;5083090;28;20036;-71
2023/12/02 06:36:40;;;;;;;1.63;1.50;;;;;;;19.23;36.45;101146.72;5075231;28;20618;-70
2023/12/02 06:39:07;;;;;;;1.50;1.40;;;;;;;19.22;36.57;101154.81;5079540;28;20044;-70
2023/12/02 06:41:33;;;;;;;1.40;1.30;;;;;;;19.21;36.35;101155.78;5078521;28;20048;-70
2023/12/02 06:43:59;;;;;;;1.50;1.40;;;;;;;19.20;36.51;101154.97;5077208;28;20040;-69
2023/12/02 06:46:25;;;;;;;1.65;1.55;;;;;;;19.20;36.51;101162.88;5083105;28;20078;-70
2023/12/02 06:48:51;;;;;;;1.60;1.50;;;;;;;19.05;36.48;101138.19;5079917;28;20063;-70
2023/12/02 06:51:16;;;;;;;1.30;1.30;;;;;;;19.16;36.36;101158.09;5079975;28;20059;-70
2023/12/02 06:53:42;;;;;;;1.38;1.27;;;;;;;19.18;36.50;101166.69;5084556;28;20146;-70
2023/12/02 06:56:21;;;;;;;1.63;1.52;;;;;;;19.16;36.46;101164.22;5072008;28;20036;-70
2023/12/02 06:58:48;;;;;;;1.20;1.20;;;;;;;19.14;36.29;101174.13;5082366;28;20375;-70
2023/12/02 07:01:26;;;;;;;1.40;1.30;;;;;;;19.15;36.59;101167.03;5020255;28;20051;-70
2023/12/02 07:03:56;;;;;;;1.40;1.30;;;;;;;19.13;36.40;101171.66;5083620;28;20074;-70
2023/12/02 07:06:21;;;;;;;1.50;1.40;;;;;;;19.12;36.67;101178.75;5077906;28;20491;-70
2023/12/02 07:08:51;;;;;;;1.45;1.42;;;;;;;19.07;36.62;101178.44;5064231;28;20052;-70
2023/12/02 07:11:17;;;;;;;1.58;1.48;;;;;;;19.12;36.47;101188.47;5061664;28;20044;-70
2023/12/02 07:13:43;;;;;;;1.30;1.30;;;;;;;19.11;36.63;101186.84;5080852;28;21337;-70
2023/12/02 07:16:09;;;;;;;1.60;1.50;;;;;;;19.09;36.55;101194.09;5082228;28;20059;-70
2023/12/02 07:18:36;;;;;;;1.20;1.20;;;;;;;19.10;36.41;101195.75;5084518;28;20116;-70
2023/12/02 07:21:02;;;;;;;1.30;1.20;;;;;;;19.21;36.40;101196.25;5083706;28;20130;-70
2023/12/02 07:23:30;;;;;;;1.42;1.33;;;;;;;19.74;35.34;101186.06;5083488;28;20035;-70
2023/12/02 07:25:56;;;;;;;1.75;1.65;;;;;;;20.78;33.65;101196.28;5086730;28;20051;-70
2023/12/02 07:28:22;;;;;;;1.45;1.35;;;;;;;21.65;32.35;101189.53;5085040;28;20073;-70
2023/12/02 07:30:50;;;;;;;1.50;1.40;;;;;;;21.92;31.79;101203.16;5082570;28;20040;-70
2023/12/02 07:33:18;;;;;;;1.40;1.30;;;;;;;21.67;32.32;101198.13;5087101;28;20686;-70
2023/12/02 07:35:44;;;;;;;1.60;1.50;;;;;;;21.42;32.71;101202.88;5088326;28;20059;-70
2023/12/02 07:38:09;;;;;;;1.60;1.50;;;;;;;21.12;33.22;101211.72;5066438;28;20039;-70
2023/12/02 07:40:35;;;;;;;1.45;1.35;;;;;;;20.95;33.74;101205.75;5068485;28;21032;-70
2023/12/02 07:43:04;;;;;;;1.52;1.42;;;;;;;20.70;34.17;101204.31;5082356;28;20517;-70
2023/12/02 07:45:29;;;;;;;1.45;1.35;;;;;;;20.63;34.15;101206.81;5093005;28;20047;-70
2023/12/02 07:47:55;;;;;;;1.50;1.40;;;;;;;20.50;34.51;101215.34;5087111;28;20043;-69
2023/12/02 07:50:20;;;;;;;1.50;1.40;;;;;;;20.38;34.53;101213.22;5088302;28;20413;-70
2023/12/02 07:52:46;;;;;;;1.48;1.38;;;;;;;20.29;34.93;101223.03;5086545;28;20035;-70
2023/12/02 07:55:12;;;;;;;1.48;1.38;;;;;;;20.22;35.02;101222.88;5085839;28;20054;-70
2023/12/02 07:57:38;;;;;;;1.55;1.45;;;;;;;20.14;35.16;101219.47;5061075;28;20798;-70
2023/12/02 08:00:04;;;;;;;1.15;1.15;;;;;;;20.14;35.20;101232.69;5086862;28;20036;-70
2023/12/02 08:02:37;;;;;;;1.35;1.35;;;;;;;20.08;35.26;101231.53;5077316;28;20048;-70
2023/12/02 08:05:03;;;;;;;1.55;1.45;;;;;;;19.88;35.30;101215.25;5080494;28;20048;-70
2023/12/02 08:07:28;;;;;;;1.33;1.23;;;;;;;19.85;35.43;101212.13;5087437;28;20040;-70
2023/12/02 08:09:54;;;;;;;1.48;1.38;;;;;;;19.96;35.45;101251.44;5065215;28;20055;-70
2023/12/02 08:12:20;;;;;;;1.58;1.48;;;;;;;19.81;35.61;101238.09;5086523;28;20097;-70
2023/12/02 08:14:45;;;;;;;1.60;1.33;;;;;;;19.84;35.70;101253.59;5077391;28;20040;-70
2023/12/02 08:17:11;;;;;;;1.33;1.23;;;;;;;19.79;35.74;101253.28;5081115;28;20031;-70
2023/12/02 08:19:36;;;;;;;1.20;1.13;;;;;;;19.77;35.75;101250.00;5055921;28;20093;-71
2023/12/02 08:22:02;;;;;;;1.20;1.10;;;;;;;19.75;35.81;101256.41;5079638;28;20036;-70
2023/12/02 08:24:32;;;;;;;1.50;1.40;;;;;;;19.69;35.86;101247.34;5077810;28;20118;-70
2023/12/02 08:26:58;;;;;;;1.83;1.70;;;;;;;19.64;35.86;101243.56;5083652;28;20180;-70
2023/12/02 08:29:24;;;;;;;1.23;1.15;;;;;;;19.84;35.59;101245.66;5062730;28;20400;-70
2023/12/02 08:31:50;;;;;;;1.52;1.42;;;;;;;20.52;34.63;101263.59;5080672;28;20114;-70
2023/12/02 08:34:15;;;;;;;1.70;1.60;;;;;;;21.25;33.49;101254.38;5081595;28;20597;-70
2023/12/02 08:36:41;;;;;;;1.13;1.10;;;;;;;21.23;33.26;101256.34;5059825;28;20079;-70
2023/12/02 08:39:07;;;;;;;1.50;1.40;;;;;;;21.10;33.64;101259.56;5080512;28;20028;-70
2023/12/02 08:41:33;;;;;;;2.00;1.83;;;;;;;20.97;33.66;101272.56;5061704;28;20475;-70
2023/12/02 08:43:59;;;;;;;1.65;1.55;;;;;;;20.75;33.91;101253.03;5007472;28;20036;-70
2023/12/02 08:46:25;;;;;;;1.65;1.55;;;;;;;20.72;34.31;101256.03;5064356;28;20361;-70
2023/12/02 08:48:51;;;;;;;1.35;1.25;;;;;;;20.56;34.51;101266.72;5083331;28;20088;-70
2023/12/02 08:51:17;;;;;;;1.65;1.55;;;;;;;20.48;34.54;101259.66;5077688;28;20067;-70
2023/12/02 08:53:42;;;;;;;1.58;1.48;;;;;;;20.44;34.56;101265.47;5059719;28;20060;-70
2023/12/02 08:56:08;;;;;;;1.60;1.50;;;;;;;20.29;34.88;101252.13;5078369;28;20036;-70
2023/12/02 08:58:34;;;;;;;1.60;1.50;;;;;;;20.30;34.96;101268.81;5029787;28;20042;-70
2023/12/02 09:01:00;;;;;;;1.80;1.70;;;;;;;20.22;34.72;101265.19;5081429;28;20123;-70
2023/12/02 09:03:26;;;;;;;1.40;1.30;;;;;;;20.10;35.03;101257.78;5032372;28;20074;-70
2023/12/02 09:05:55;;;;;;;1.55;1.45;;;;;;;20.03;35.09;101254.19;5086765;28;20036;-70
2023/12/02 09:08:21;;;;;;;1.50;1.40;;;;;;;20.07;35.24;101272.19;5029414;28;20648;-70
2023/12/02 09:10:46;;;;;;;1.60;1.50;;;;;;;20.02;35.29;101274.53;5085042;28;20036;-70
2023/12/02 09:13:24;;;;;;;1.48;1.38;;;;;;;19.97;35.32;101274.22;5045420;28;20065;-70
2023/12/02 09:15:49;;;;;;;1.48;1.38;;;;;;;19.93;35.28;101280.84;5083146;28;20146;-70
2023/12/02 09:18:29;;;;;;;1.60;1.50;;;;;;;19.90;35.53;101284.63;5028461;28;20039;-71
2023/12/02 09:20:55;;;;;;;;;;;;;;;19.88;35.47;101283.16;5064153;28;20483;-70
2023/12/02 09:23:21;;;;;;;1.83;1.73;;;;;;;19.83;35.53;101282.84;5025931;28;20062;-70
2023/12/02 09:25:48;;;;;;;1.80;1.70;;;;;;;19.80;35.69;101294.56;5079842;28;20733;-70
2023/12/02 09:28:17;;;;;;;2.55;1.55;;;;;;;19.82;35.58;101297.03;5037417;28;20409;-70
2023/12/02 09:30:50;;;;;;;1.48;1.38;;;;;;;19.82;35.69;101303.16;5078046;28;20035;-69
2023/12/02 09:33:16;;;;;;;1.75;1.60;;;;;;;19.74;35.59;101289.13;5035662;28;20040;-68
2023/12/02 09:35:42;;;;;;;1.48;1.38;;;;;;;19.83;35.60;101310.09;5076271;28;20034;-68
2023/12/02 09:38:08;;;;;;;1.38;1.27;;;;;;;19.86;35.48;101306.28;5051589;28;20452;-68
2023/12/02 09:40:36;;;;;;;1.50;1.40;;;;;;;19.87;35.51;101306.09;5059041;28;20036;-67
2023/12/02 09:43:25;;;;;;;1.63;1.52;;;;;;;19.92;35.33;101311.72;5070061;28;20088;-69
2023/12/02 09:45:59;;;;;;;1.63;1.52;;;;;;;19.90;35.23;101304.94;5079870;28;20085;-69
2023/12/02 09:48:30;;;;;;;1.88;1.77;;;;;;;19.98;35.22;101310.22;5007239;28;20712;-68
2023/12/02 09:50:58;;;;;;;;;;;;;;;20.08;34.99;101307.38;5083565;28;20506;-69
2023/12/02 09:54:25;;;;;;;1.48;1.38;;;;;;;20.04;35.10;101303.44;5047000;28;19924;-69
2023/12/02 09:56:58;;;;;;;3.03;1.92;;;;;;;20.02;35.20;101318.63;5042600;28;20429;-69
2023/12/02 09:59:35;;;;;;;1.35;1.25;;;;;;;20.01;35.20;101322.28;5043902;28;20056;-68
2023/12/02 10:02:28;;;;;;;1.70;1.60;;;;;;;19.95;35.30;101322.97;5050303;28;20485;-69
2023/12/02 10:05:05;;;;;;;1.83;1.73;;;;;;;19.85;35.46;101307.28;5076642;28;20036;-68
2023/12/02 10:08:03;;;;;;;1.70;1.60;;;;;;;19.92;35.37;101318.81;5028079;28;20904;-69
2023/12/02 10:10:55;;;;;;;1.45;1.35;;;;;;;19.80;35.56;101318.34;5081123;28;20040;-69
2023/12/02 10:13:51;;;;;;;1.58;1.48;;;;;;;19.81;35.63;101319.19;5026738;28;20104;-69
2023/12/02 10:16:22;;;;;;;1.58;1.48;;;;;;;19.75;35.59;101318.03;5079289;28;20717;-69
2023/12/02 10:18:52;;;;;;;1.70;1.60;;;;;;;19.73;35.48;101313.88;5029572;28;20046;-69
2023/12/02 10:21:20;;;;;;;1.52;1.42;;;;;;;19.84;35.34;101319.66;5071574;28;20063;-68
2023/12/02 10:24:05;;;;;;;1.58;1.45;;;;;;;20.02;35.01;101316.81;5019153;28;20592;-68
2023/12/02 10:26:45;;;;;;;1.50;1.40;;;;;;;20.40;34.64;101322.31;5075672;28;20032;-68
2023/12/02 10:29:36;;;;;;;1.60;1.50;;;;;;;20.74;33.82;101312.28;5031742;28;20043;-68
2023/12/02 10:32:04;;;;;;;1.80;1.70;;;;;;;20.77;33.81;101319.03;5034256;28;20579;-68
2023/12/02 10:34:47;;;;;;;1.75;1.65;;;;;;;20.55;34.41;101307.41;5078370;28;20036;-69
2023/12/02 10:37:13;;;;;;;1.77;1.67;;;;;;;20.68;33.66;101323.56;5015111;28;20522;-66
2023/12/02 10:39:43;;;;;;;2.30;2.10;;;;;;;20.24;35.11;101296.75;5070631;28;20040;-66
2023/12/02 10:42:19;;;;;;;2.08;1.88;;;;;;;20.38;35.36;101319.03;5031624;28;20028;-66
2023/12/02 10:44:53;;;;;;;2.10;1.85;;;;;;;20.31;35.22;101308.31;5072236;28;20040;-66
2023/12/02 10:47:19;;;;;;;1.70;1.60;;;;;;;20.30;35.20;101313.78;5012316;28;20548;-66
2023/12/02 10:49:45;;;;;;;2.20;1.80;;;;;;;20.20;35.28;101304.22;5064493;28;20047;-66
2023/12/02 10:52:13;;;;;;;2.00;1.80;;;;;;;20.21;35.50;101316.44;5027458;28;20039;-66
2023/12/02 10:54:41;;;;;;;1.60;1.50;;;;;;;20.19;35.44;101312.31;5063577;28;20031;-67
2023/12/02 10:57:08;;;;;;;2.22;2.08;;;;;;;20.07;35.62;101309.19;5084349;28;20050;-66
2023/12/02 10:59:50;;;;;;;1.75;1.65;;;;;;;19.94;35.73;101286.97;5054787;28;20043;-66
2023/12/02 11:02:15;;;;;;;1.50;1.40;;;;;;;20.08;35.71;101317.97;5060426;28;20039;-66
2023/12/02 11:04:49;;;;;;;2.13;1.92;;;;;;;20.06;35.60;101320.78;5035176;28;20075;-66
2023/12/02 11:07:17;;;;;;;1.60;1.50;;;;;;;20.01;35.76;101322.28;5083988;28;20036;-65
2023/12/02 11:09:48;;;;;;;2.20;1.70;;;;;;;20.00;35.97;101321.47;5031316;28;21315;-67
2023/12/02 11:12:47;;;;;;;1.50;1.40;;;;;;;19.92;35.97;101309.06;5064629;28;20084;-66
2023/12/02 11:15:14;;;;;;;1.60;1.50;;;;;;;19.90;35.84;101310.22;5024615;28;20032;-66
2023/12/02 11:17:58;;;;;;;1.70;1.60;;;;;;;20.02;35.85;101327.41;5070233;28;20039;-65
2023/12/02 11:20:44;;;;;;;1.95;1.70;;;;;;;20.32;34.59;101311.78;5023886;28;20032;-66
2023/12/02 11:23:39;;;;;;;1.90;1.80;;;;;;;20.75;34.13;101313.09;5070823;28;20032;-66
2023/12/02 11:26:17;;;;;;;1.58;1.48;;;;;;;21.03;33.64;101316.09;5032340;28;20039;-66
2023/12/02 11:29:14;;;;;;;2.35;1.77;;;;;;;20.96;33.92;101315.94;5065186;28;20070;-67